Time;durP1;ratioP1;P1;durP2;ratioP2;P2;SDS_P1;SDS_P2;PMS_P1;PMS_P2;Temp;Humidity;BMP_temperature;BMP_pressure;BME280_temperature;BME280_humidity;BME280_pressure;Samples;Min_cycle;Max_cycle;Signal;HPM_P1;HPM_P2
2021/10/26 00:01:49;;;;;;;47.67;43.87;;;;;;;9.92;100.00;101851.52;1941108;74;33004;-68
2021/10/26 00:07:13;;;;;;;47.70;43.77;;;;;;;9.96;100.00;101857.69;1941110;74;33012;-70
2021/10/26 00:12:37;;;;;;;46.73;43.10;;;;;;;9.98;100.00;101857.41;1941339;74;33114;-70
2021/10/26 00:18:04;;;;;;;45.70;42.27;;;;;;;9.92;100.00;101855.14;1941285;74;33082;-68
2021/10/26 00:23:28;;;;;;;45.87;42.17;;;;;;;10.00;100.00;101869.95;1941291;74;33688;-71
2021/10/26 00:28:54;;;;;;;44.47;40.80;;;;;;;10.12;100.00;101875.92;1941323;74;33644;-69
2021/10/26 00:34:19;;;;;;;46.60;42.70;;;;;;;10.22;100.00;101892.77;1941308;74;33018;-68
2021/10/26 00:39:43;;;;;;;45.77;42.20;;;;;;;10.12;100.00;101885.09;1941182;74;33003;-68
2021/10/26 00:45:09;;;;;;;44.20;41.10;;;;;;;10.03;100.00;101884.70;1941290;74;33566;-68
2021/10/26 00:50:34;;;;;;;43.23;40.00;;;;;;;10.06;100.00;101882.78;1941099;74;33016;-69
2021/10/26 00:55:58;;;;;;;43.87;40.57;;;;;;;10.08;100.00;101885.86;1941135;74;33088;-68
2021/10/26 01:01:23;;;;;;;44.53;41.10;;;;;;;10.11;100.00;101888.12;1941406;74;33090;-68
2021/10/26 01:06:50;;;;;;;43.73;40.37;;;;;;;10.18;100.00;101894.37;1941075;74;33095;-69
2021/10/26 01:12:15;;;;;;;44.90;41.53;;;;;;;10.18;100.00;101894.37;1941053;74;32997;-68
2021/10/26 01:17:40;;;;;;;45.23;41.43;;;;;;;10.14;100.00;101877.91;1941086;74;33078;-68
2021/10/26 01:23:06;;;;;;;45.73;42.07;;;;;;;10.01;100.00;101879.94;1941298;74;33587;-68
2021/10/26 01:28:30;;;;;;;46.93;43.33;;;;;;;10.24;100.00;101862.78;1941190;74;33054;-67
2021/10/26 01:33:54;;;;;;;45.03;41.83;;;;;;;10.17;100.00;101860.76;1941057;74;33016;-68
2021/10/26 01:39:18;;;;;;;44.93;41.57;;;;;;;10.28;100.00;101855.61;1941082;74;33092;-68
2021/10/26 01:44:43;;;;;;;44.43;41.00;;;;;;;10.52;100.00;101852.02;1941047;74;33003;-68
2021/10/26 01:50:12;;;;;;;44.40;40.93;;;;;;;10.45;100.00;101852.20;1941073;74;33004;-68
2021/10/26 01:55:37;;;;;;;44.60;41.50;;;;;;;10.58;100.00;101860.69;1941061;74;33002;-68
2021/10/26 02:01:02;;;;;;;43.93;40.73;;;;;;;10.43;100.00;101866.38;1941009;74;32981;-68
2021/10/26 02:06:26;;;;;;;45.70;41.97;;;;;;;10.44;100.00;101854.69;1941049;74;33069;-68
2021/10/26 02:11:50;;;;;;;43.73;40.53;;;;;;;10.55;100.00;101855.11;1941271;74;33495;-68
2021/10/26 02:17:14;;;;;;;44.23;41.00;;;;;;;10.58;100.00;101855.97;1941071;74;33050;-68
2021/10/26 02:22:39;;;;;;;45.37;41.87;;;;;;;10.62;100.00;101854.89;1941033;74;33024;-69
2021/10/26 02:28:05;;;;;;;43.67;40.60;;;;;;;10.75;100.00;101856.72;1941165;74;33015;-67
2021/10/26 02:33:29;;;;;;;42.90;39.60;;;;;;;10.73;100.00;101842.81;1941280;74;33570;-68
2021/10/26 02:38:53;;;;;;;43.20;39.53;;;;;;;10.75;100.00;101841.44;1941330;74;33504;-68
2021/10/26 02:44:17;;;;;;;43.03;39.87;;;;;;;10.76;100.00;101847.84;1941274;74;33087;-69
2021/10/26 02:49:42;;;;;;;40.93;37.87;;;;;;;10.81;100.00;101827.89;1941251;74;33003;-68
2021/10/26 02:55:08;;;;;;;39.50;36.40;;;;;;;10.92;100.00;101832.98;1941042;74;33091;-68
2021/10/26 03:00:33;;;;;;;40.97;37.97;;;;;;;10.87;100.00;101824.03;1941171;74;32982;-68
2021/10/26 03:05:57;;;;;;;40.33;37.60;;;;;;;11.12;100.00;101835.12;1941255;74;33015;-68
2021/10/26 03:11:21;;;;;;;41.63;38.40;;;;;;;11.16;100.00;101844.06;1941316;74;33110;-69
2021/10/26 03:16:45;;;;;;;40.83;37.83;;;;;;;11.14;100.00;101845.41;1941066;74;33006;-69
2021/10/26 03:22:09;;;;;;;41.43;38.20;;;;;;;11.15;100.00;101848.48;1941007;74;33091;-70
2021/10/26 03:27:35;;;;;;;41.33;38.47;;;;;;;11.20;100.00;101855.48;1941051;74;33159;-68
2021/10/26 03:33:00;;;;;;;37.97;35.27;;;;;;;11.22;100.00;101847.16;1941296;74;33069;-68
2021/10/26 03:38:24;;;;;;;40.97;37.83;;;;;;;11.20;100.00;101843.82;1941300;74;32997;-69
2021/10/26 03:43:49;;;;;;;38.30;35.57;;;;;;;11.13;100.00;101840.95;1941125;74;33083;-68
2021/10/26 03:49:13;;;;;;;39.47;36.60;;;;;;;11.15;100.00;101835.42;1941303;74;33558;-70
2021/10/26 03:54:38;;;;;;;38.87;35.97;;;;;;;11.10;100.00;101854.00;1941022;74;33033;-68
2021/10/26 04:00:04;;;;;;;39.00;36.17;;;;;;;11.09;100.00;101841.19;1941322;74;33601;-68
2021/10/26 04:05:39;;;;;;;41.73;38.37;;;;;;;11.10;100.00;101838.70;1941102;74;32996;-68
2021/10/26 04:11:04;;;;;;;42.23;38.83;;;;;;;11.18;100.00;101849.34;1941203;74;33056;-67
2021/10/26 04:16:27;;;;;;;43.63;40.30;;;;;;;10.98;100.00;101859.73;1941164;74;33078;-68
2021/10/26 04:21:51;;;;;;;41.63;38.57;;;;;;;11.02;100.00;101868.38;1941051;74;33016;-68
2021/10/26 04:27:16;;;;;;;43.73;40.20;;;;;;;10.80;100.00;101878.17;1941102;74;33080;-69
2021/10/26 04:32:42;;;;;;;42.17;38.90;;;;;;;10.78;100.00;101876.22;1941293;74;33022;-68
2021/10/26 04:38:06;;;;;;;42.93;39.77;;;;;;;10.63;100.00;101881.59;1941199;74;33007;-68
2021/10/26 04:43:31;;;;;;;42.23;39.10;;;;;;;10.50;100.00;101896.72;1941064;74;33085;-68
2021/10/26 04:48:56;;;;;;;42.47;39.40;;;;;;;10.61;100.00;101890.75;1941178;74;32993;-68
2021/10/26 04:54:20;;;;;;;42.33;38.73;;;;;;;10.61;100.00;101886.00;1941116;74;33109;-68
2021/10/26 04:59:45;;;;;;;42.27;38.87;;;;;;;10.74;100.00;101890.34;1941306;74;33529;-68
2021/10/26 05:05:11;;;;;;;41.53;38.20;;;;;;;10.63;100.00;101906.05;1941295;74;33645;-68
2021/10/26 05:10:35;;;;;;;42.57;39.10;;;;;;;10.60;100.00;101909.91;1941280;74;33644;-68
2021/10/26 05:15:59;;;;;;;41.83;38.60;;;;;;;10.55;100.00;101927.34;1941356;74;33070;-69
2021/10/26 05:21:24;;;;;;;42.53;39.20;;;;;;;10.63;100.00;101939.39;1941378;74;33495;-68
2021/10/26 05:26:49;;;;;;;40.80;37.43;;;;;;;10.53;100.00;101941.19;1941456;74;32985;-68
2021/10/26 05:32:14;;;;;;;42.50;39.13;;;;;;;10.38;100.00;101955.19;1941351;74;33565;-68
2021/10/26 05:37:39;;;;;;;40.90;37.80;;;;;;;10.40;100.00;101964.63;1941079;74;33138;-70
2021/10/26 05:43:05;;;;;;;40.63;37.63;;;;;;;10.56;100.00;101967.09;1941292;74;33467;-68
2021/10/26 05:48:31;;;;;;;40.70;37.70;;;;;;;10.54;100.00;101970.11;1941380;74;33656;-69
2021/10/26 05:53:56;;;;;;;42.37;39.33;;;;;;;10.54;100.00;101968.72;1941260;74;33114;-68
2021/10/26 05:59:20;;;;;;;41.10;37.90;;;;;;;10.48;100.00;101965.03;1941210;74;33583;-68
2021/10/26 06:04:45;;;;;;;42.70;39.43;;;;;;;10.57;100.00;101966.81;1941176;74;33082;-68
2021/10/26 06:10:10;;;;;;;40.87;37.87;;;;;;;10.62;100.00;101968.81;1941412;74;33495;-68
2021/10/26 06:15:35;;;;;;;40.03;37.13;;;;;;;10.55;100.00;101976.52;1941139;74;33131;-68
2021/10/26 06:20:59;;;;;;;40.83;37.83;;;;;;;10.47;100.00;101975.87;1941099;74;33073;-69
2021/10/26 06:26:25;;;;;;;41.57;38.47;;;;;;;10.39;100.00;101976.32;1941079;74;33070;-69
2021/10/26 06:31:49;;;;;;;41.47;38.37;;;;;;;10.40;100.00;101971.58;1941218;74;33107;-68
2021/10/26 06:37:13;;;;;;;40.93;37.93;;;;;;;10.46;100.00;101976.12;1941066;74;32992;-70
2021/10/26 06:42:37;;;;;;;40.27;37.20;;;;;;;10.50;100.00;101975.89;1941097;74;32967;-68
2021/10/26 06:48:02;;;;;;;40.73;37.83;;;;;;;10.60;100.00;101978.81;1941147;74;32979;-68
2021/10/26 06:53:27;;;;;;;41.50;38.37;;;;;;;10.53;100.00;101991.20;1941364;74;33589;-68
2021/10/26 06:58:52;;;;;;;40.83;37.53;;;;;;;10.49;100.00;102000.05;1941142;74;33070;-68
2021/10/26 07:04:16;;;;;;;41.30;38.27;;;;;;;10.60;100.00;101999.66;1941409;74;32987;-68
2021/10/26 07:09:40;;;;;;;43.80;40.60;;;;;;;10.70;100.00;101986.42;1941346;74;33062;-68
2021/10/26 07:15:07;;;;;;;41.67;38.67;;;;;;;10.65;100.00;101992.78;1941405;74;33550;-68
2021/10/26 07:20:32;;;;;;;42.40;39.00;;;;;;;10.71;100.00;102002.84;1941332;74;33595;-68
2021/10/26 07:26:16;;;;;;;41.60;38.60;;;;;;;10.78;100.00;102011.02;2009940;71;32800;-70
2021/10/26 07:31:40;;;;;;;41.80;38.73;;;;;;;10.85;100.00;102013.03;1941160;74;33064;-67
2021/10/26 07:37:06;;;;;;;41.67;38.50;;;;;;;10.88;100.00;102011.12;1941361;74;33569;-67
2021/10/26 07:42:30;;;;;;;40.87;37.90;;;;;;;10.98;100.00;102016.81;1941011;74;33061;-68
2021/10/26 07:47:54;;;;;;;40.53;37.47;;;;;;;11.07;100.00;102025.54;1941186;74;33581;-67
2021/10/26 07:53:18;;;;;;;40.90;37.70;;;;;;;11.15;100.00;102025.92;1941111;74;33078;-68
2021/10/26 07:58:42;;;;;;;40.30;37.27;;;;;;;11.25;100.00;102018.25;1941153;74;33001;-67
2021/10/26 08:04:07;;;;;;;40.57;37.43;;;;;;;11.32;100.00;102025.83;1941134;74;32984;-67
2021/10/26 08:09:32;;;;;;;40.97;37.80;;;;;;;11.47;100.00;102017.63;1941370;74;33055;-68
2021/10/26 08:14:57;;;;;;;40.80;37.77;;;;;;;11.57;100.00;102016.89;1941161;74;33054;-69
2021/10/26 08:20:21;;;;;;;39.80;36.70;;;;;;;11.65;100.00;102024.22;1941204;74;33202;-68
2021/10/26 08:25:49;;;;;;;40.90;38.00;;;;;;;11.66;100.00;102020.88;1941418;74;33478;-68
2021/10/26 08:31:18;;;;;;;38.80;36.00;;;;;;;11.76;100.00;102037.17;1941326;74;33105;-67
2021/10/26 08:36:42;;;;;;;40.67;37.87;;;;;;;11.80;100.00;102029.97;1941377;74;33527;-68
2021/10/26 08:42:08;;;;;;;41.93;39.13;;;;;;;11.89;100.00;102026.70;1941313;74;33007;-67
2021/10/26 08:47:32;;;;;;;41.50;38.30;;;;;;;11.94;100.00;102016.42;1941214;74;32978;-71
2021/10/26 08:52:56;;;;;;;40.40;37.60;;;;;;;12.07;100.00;102010.40;1941307;74;33467;-69
2021/10/26 08:58:21;;;;;;;40.93;38.03;;;;;;;12.29;100.00;102019.48;1941286;74;33581;-69
2021/10/26 09:04:10;;;;;;;39.87;37.00;;;;;;;12.54;100.00;102021.58;2018576;71;32834;-70
2021/10/26 09:09:42;;;;;;;40.03;37.03;;;;;;;12.57;100.00;102019.67;1941279;74;33459;-67
2021/10/26 09:20:53;;;;;;;41.60;38.17;;;;;;;12.88;100.00;102004.48;1941319;74;33454;-70
2021/10/26 09:26:17;;;;;;;41.17;38.00;;;;;;;12.99;100.00;102004.80;1941033;74;33098;-68
2021/10/26 09:31:48;;;;;;;41.77;38.43;;;;;;;13.20;100.00;101999.59;1941325;74;33524;-69
2021/10/26 09:37:15;;;;;;;42.07;39.20;;;;;;;13.46;100.00;101999.94;1941170;74;32987;-67
2021/10/26 09:42:51;;;;;;;43.90;40.73;;;;;;;13.51;100.00;101984.60;1941035;74;32974;-67
2021/10/26 09:48:26;;;;;;;42.40;39.10;;;;;;;13.63;100.00;101987.96;1941289;74;33505;-70
2021/10/26 09:53:58;;;;;;;43.47;39.97;;;;;;;13.64;100.00;101980.42;1941321;74;33542;-68
2021/10/26 09:59:23;;;;;;;47.87;44.20;;;;;;;13.62;100.00;101966.73;1941097;74;33133;-68
2021/10/26 10:04:48;;;;;;;45.20;41.50;;;;;;;13.75;100.00;101961.70;1941334;74;33591;-66
2021/10/26 10:10:25;;;;;;;48.27;44.47;;;;;;;13.95;100.00;101958.89;1941352;74;33470;-68
2021/10/26 10:15:58;;;;;;;41.53;37.97;;;;;;;14.01;100.00;101956.38;1941226;74;33104;-68
2021/10/26 10:21:26;;;;;;;42.67;39.20;;;;;;;14.24;100.00;101963.34;1941170;74;33118;-68
2021/10/26 10:26:53;;;;;;;42.13;38.83;;;;;;;14.51;100.00;101975.02;1941106;74;33011;-67
2021/10/26 10:32:19;;;;;;;43.70;40.17;;;;;;;14.60;100.00;101974.72;1941066;74;33008;-68
2021/10/26 10:37:45;;;;;;;43.33;39.50;;;;;;;14.71;100.00;101976.93;1941114;74;33001;-67
2021/10/26 10:43:09;;;;;;;46.53;42.50;;;;;;;14.71;100.00;101986.16;1941132;74;33219;-68
2021/10/26 10:48:39;;;;;;;42.43;38.93;;;;;;;14.73;100.00;101999.84;1941205;74;32987;-69
2021/10/26 10:54:06;;;;;;;42.37;38.70;;;;;;;14.88;100.00;102015.19;1941172;74;33098;-67
2021/10/26 10:59:45;;;;;;;43.17;39.57;;;;;;;14.98;100.00;102015.12;1941626;74;33512;-68
2021/10/26 11:05:41;;;;;;;41.50;38.07;;;;;;;15.09;100.00;102010.34;1941345;74;33494;-69
2021/10/26 11:11:07;;;;;;;44.90;41.00;;;;;;;15.22;100.00;102002.16;1941394;74;33585;-68
2021/10/26 11:16:36;;;;;;;46.13;42.10;;;;;;;15.20;100.00;102007.75;1941093;74;33154;-68
2021/10/26 11:22:03;;;;;;;51.60;47.07;;;;;;;15.29;100.00;102006.02;1941026;74;33106;-68
2021/10/26 11:27:36;;;;;;;45.53;41.93;;;;;;;15.59;100.00;102007.26;1941345;74;33652;-70
2021/10/26 11:33:31;;;;;;;42.73;39.07;;;;;;;15.72;100.00;102007.17;1941362;74;33523;-71
2021/10/26 11:38:57;;;;;;;45.10;41.20;;;;;;;15.63;100.00;101992.11;1941094;74;33013;-69
2021/10/26 11:44:22;;;;;;;46.10;42.10;;;;;;;15.58;100.00;101992.14;1941423;74;34350;-68
2021/10/26 11:49:47;;;;;;;43.70;39.97;;;;;;;15.70;100.00;101987.84;1941321;74;33107;-68
2021/10/26 11:55:15;;;;;;;44.27;40.63;;;;;;;15.90;100.00;101981.25;1941143;74;33108;-69
2021/10/26 12:00:40;;;;;;;46.50;42.20;;;;;;;15.91;100.00;101967.52;1941367;74;33618;-69
2021/10/26 12:06:04;;;;;;;43.83;40.40;;;;;;;15.91;100.00;101969.76;1941401;74;33625;-69
2021/10/26 12:11:32;;;;;;;44.63;41.30;;;;;;;16.04;100.00;101969.64;1941343;74;33490;-68
2021/10/26 12:17:30;;;;;;;43.97;40.40;;;;;;;16.28;100.00;101969.11;1941480;74;31049;-69
2021/10/26 12:25:47;;;;;;;43.53;40.23;;;;;;;16.47;100.00;101972.00;2061278;69;32623;-69
2021/10/26 12:28:16;;;;;;;44.20;40.80;;;;;;;16.47;100.00;101972.00;2030732;70;26203;-68
2021/10/26 12:30:49;;;;;;;43.50;39.73;;;;;;;16.40;100.00;101972.34;2031092;71;24121;-68
2021/10/26 12:33:21;;;;;;;45.20;41.93;;;;;;;16.46;100.00;101963.88;2030736;70;26251;-69
2021/10/26 12:35:53;;;;;;;43.43;39.73;;;;;;;16.45;100.00;101958.83;2030876;71;24206;-68
2021/10/26 12:41:27;;;;;;;42.30;38.80;;;;;;;16.61;100.00;101958.94;1941208;74;31138;-68
2021/10/26 12:47:05;;;;;;;42.87;39.67;;;;;;;16.72;100.00;101951.25;1941136;74;33197;-68
2021/10/26 12:52:32;;;;;;;40.60;37.30;;;;;;;16.76;100.00;101931.28;1941299;74;31043;-68
2021/10/26 12:57:57;;;;;;;40.67;37.37;;;;;;;17.00;100.00;101935.43;1941346;74;33607;-68
2021/10/26 13:03:24;;;;;;;41.00;37.37;;;;;;;17.30;100.00;101936.39;1941152;74;33013;-68
2021/10/26 13:08:50;;;;;;;42.17;38.97;;;;;;;17.38;100.00;101927.27;1941166;74;31128;-69
2021/10/26 13:14:26;;;;;;;43.73;40.43;;;;;;;17.33;100.00;101916.71;1941186;74;33114;-68
2021/10/26 13:19:50;;;;;;;42.73;39.73;;;;;;;17.23;100.00;101921.91;1941277;74;33496;-69
2021/10/26 13:25:16;;;;;;;45.13;41.67;;;;;;;17.22;100.00;101906.19;1941320;74;31055;-69
2021/10/26 13:30:49;;;;;;;43.80;40.60;;;;;;;17.26;100.00;101906.68;1941101;74;33102;-69
2021/10/26 13:36:16;;;;;;;44.90;41.53;;;;;;;17.21;100.00;101897.49;1941113;74;33148;-68
2021/10/26 13:41:47;;;;;;;42.63;39.43;;;;;;;17.22;100.00;101898.60;1941313;74;31165;-69
2021/10/26 13:47:12;;;;;;;43.87;40.40;;;;;;;17.33;100.00;101902.66;1941335;74;31055;-69
2021/10/26 13:52:36;;;;;;;46.83;43.33;;;;;;;17.24;100.00;101898.31;1941092;74;33127;-69
2021/10/26 13:58:02;;;;;;;43.93;40.53;;;;;;;17.13;100.00;101902.39;1941238;74;31184;-69
2021/10/26 14:03:27;;;;;;;42.77;39.20;;;;;;;17.10;100.00;101890.38;1941066;74;33007;-69
2021/10/26 14:08:55;;;;;;;46.23;42.47;;;;;;;17.14;100.00;101891.44;1941159;74;31129;-69
2021/10/26 14:14:19;;;;;;;42.47;39.37;;;;;;;17.08;100.00;101889.83;1941445;74;31665;-68
2021/10/26 14:19:43;;;;;;;43.57;40.13;;;;;;;17.12;100.00;101895.94;1941122;74;33007;-69
2021/10/26 14:25:09;;;;;;;42.67;39.37;;;;;;;17.12;100.00;101889.48;1941351;74;31580;-69
2021/10/26 14:30:34;;;;;;;43.63;40.33;;;;;;;17.08;100.00;101893.47;1941330;74;31612;-69
2021/10/26 14:35:59;;;;;;;43.67;40.27;;;;;;;17.09;100.00;101881.11;1941112;74;31064;-69
2021/10/26 14:41:32;;;;;;;41.30;38.23;;;;;;;17.06;100.00;101888.75;1941174;74;31078;-69
2021/10/26 14:52:55;;;;;;;45.20;41.90;;;;;;;17.01;100.00;101881.80;1941339;74;31558;-69
2021/10/26 14:58:14;;;;;;;47.13;43.70;;;;;;;17.03;100.00;101882.91;1941298;74;33128;-68
2021/10/26 15:03:40;;;;;;;44.03;40.67;;;;;;;17.00;100.00;101887.14;1941329;74;31622;-69
2021/10/26 15:09:10;;;;;;;43.63;40.40;;;;;;;16.99;100.00;101877.05;1941332;74;31164;-69
2021/10/26 15:14:35;;;;;;;44.60;41.43;;;;;;;17.00;100.00;101884.90;1941079;74;33156;-69
2021/10/26 15:20:03;;;;;;;43.57;40.17;;;;;;;17.04;100.00;101881.19;1941134;74;33103;-69
2021/10/26 15:25:51;;;;;;;43.73;40.27;;;;;;;17.04;100.00;101879.78;1941115;74;32990;-69
2021/10/26 15:36:48;;;;;;;45.27;41.30;;;;;;;17.10;100.00;101889.81;1941330;74;31532;-68
2021/10/26 15:42:12;;;;;;;46.23;42.87;;;;;;;17.07;100.00;101895.20;1941095;74;33013;-68
2021/10/26 15:47:37;;;;;;;45.37;41.83;;;;;;;17.02;100.00;101901.73;1941113;74;31153;-68
2021/10/26 15:53:03;;;;;;;46.00;42.50;;;;;;;17.07;100.00;101909.23;1941342;74;33504;-69
2021/10/26 15:58:29;;;;;;;44.97;41.30;;;;;;;17.01;100.00;101911.28;1941246;74;31254;-68
2021/10/26 16:03:53;;;;;;;45.60;42.13;;;;;;;17.00;100.00;101911.00;1941272;74;33574;-69
2021/10/26 16:09:20;;;;;;;45.70;42.30;;;;;;;16.97;100.00;101898.98;1941285;74;33906;-68
2021/10/26 16:15:08;;;;;;;46.50;43.20;;;;;;;16.94;100.00;101907.18;2011963;71;30924;-68
2021/10/26 16:20:51;;;;;;;46.67;43.33;;;;;;;16.91;100.00;101907.20;2013389;71;31637;-69
2021/10/26 16:26:15;;;;;;;44.63;41.63;;;;;;;16.83;100.00;101921.34;1941301;74;33659;-68
2021/10/26 16:31:40;;;;;;;45.47;42.07;;;;;;;16.79;100.00;101922.25;1941322;74;33015;-68
2021/10/26 16:37:04;;;;;;;45.13;41.67;;;;;;;16.71;100.00;101933.58;1941233;74;33571;-70
2021/10/26 16:43:08;;;;;;;47.40;43.80;;;;;;;16.74;100.00;101933.53;2016917;71;30907;-70
2021/10/26 16:48:32;;;;;;;46.20;42.80;;;;;;;16.70;100.00;101931.06;1941119;74;33068;-69
2021/10/26 16:53:56;;;;;;;45.77;42.03;;;;;;;16.72;100.00;101938.06;1941049;74;31135;-69
2021/10/26 16:59:22;;;;;;;47.50;43.73;;;;;;;16.72;100.00;101936.66;1941032;74;31033;-68
2021/10/26 17:04:50;;;;;;;48.00;44.53;;;;;;;16.65;100.00;101938.13;1941007;74;31630;-69
2021/10/26 17:10:16;;;;;;;49.20;45.13;;;;;;;16.60;100.00;101938.22;1941050;74;31136;-69
2021/10/26 17:15:44;;;;;;;47.90;44.20;;;;;;;16.54;100.00;101939.38;1941345;74;33476;-69
2021/10/26 17:21:08;;;;;;;47.13;43.47;;;;;;;16.62;100.00;101954.17;1941049;74;31186;-69
2021/10/26 17:26:33;;;;;;;49.90;46.17;;;;;;;16.56;100.00;101959.56;1941012;74;33000;-72
2021/10/26 17:31:57;;;;;;;48.17;44.87;;;;;;;16.54;100.00;101966.02;1941237;74;31529;-69
2021/10/26 17:37:21;;;;;;;47.67;43.93;;;;;;;16.57;100.00;101964.88;1941072;74;31153;-69
2021/10/26 17:42:47;;;;;;;46.57;42.57;;;;;;;16.50;100.00;101977.00;1941273;74;33088;-68
2021/10/26 17:48:12;;;;;;;48.53;44.87;;;;;;;16.52;100.00;101982.30;1941052;74;31117;-72
2021/10/26 17:53:37;;;;;;;52.57;48.57;;;;;;;16.37;100.00;101994.53;1941017;74;32977;-71
2021/10/26 17:59:04;;;;;;;49.67;46.17;;;;;;;16.40;100.00;101992.53;1941168;74;31040;-69
2021/10/26 18:04:30;;;;;;;49.17;45.50;;;;;;;16.32;100.00;101988.97;1940985;74;33114;-72
2021/10/26 18:09:55;;;;;;;46.90;43.50;;;;;;;16.34;100.00;102000.75;1941345;74;33493;-72
2021/10/26 18:15:21;;;;;;;47.90;44.20;;;;;;;16.26;100.00;101999.95;1941064;74;33068;-69
2021/10/26 18:20:46;;;;;;;48.37;44.87;;;;;;;16.26;100.00;102003.59;1941284;74;33055;-70
2021/10/26 18:26:10;;;;;;;50.20;46.80;;;;;;;16.28;100.00;101997.15;1941169;74;33564;-68
2021/10/26 18:31:35;;;;;;;52.67;48.90;;;;;;;16.28;100.00;101996.30;1941066;74;33158;-70
2021/10/26 18:37:06;;;;;;;51.27;47.67;;;;;;;16.25;100.00;102017.94;1941040;74;33164;-65
2021/10/26 18:42:34;;;;;;;53.03;49.33;;;;;;;16.24;100.00;102012.05;1941042;74;33068;-70
2021/10/26 18:48:01;;;;;;;52.47;49.03;;;;;;;16.16;100.00;102005.12;1941246;74;31680;-68
2021/10/26 18:53:26;;;;;;;54.07;50.43;;;;;;;16.12;100.00;102012.45;1941071;74;33578;-68
2021/10/26 18:58:50;;;;;;;53.27;49.57;;;;;;;16.07;100.00;102018.66;1941330;74;31175;-68
2021/10/26 19:04:15;;;;;;;53.07;49.63;;;;;;;16.10;100.00;102008.25;1941291;74;33573;-70
2021/10/26 19:09:39;;;;;;;49.93;46.73;;;;;;;16.08;100.00;102020.34;1941193;74;33031;-69
2021/10/26 19:15:08;;;;;;;48.70;45.20;;;;;;;16.07;100.00;102015.29;1941146;74;33076;-68
2021/10/26 19:20:36;;;;;;;51.90;47.97;;;;;;;16.05;100.00;102019.50;1941426;74;33553;-69
2021/10/26 19:26:00;;;;;;;52.80;49.03;;;;;;;16.08;100.00;102028.19;1941193;74;32974;-68
2021/10/26 19:31:25;;;;;;;52.10;48.50;;;;;;;16.01;100.00;102029.63;1941152;74;33059;-68
2021/10/26 19:36:50;;;;;;;47.00;43.60;;;;;;;16.05;100.00;102026.50;1941210;74;33060;-68
2021/10/26 19:42:16;;;;;;;46.07;42.47;;;;;;;16.00;100.00;102025.17;1941329;74;32974;-68
2021/10/26 19:47:42;;;;;;;50.30;46.80;;;;;;;16.02;100.00;102021.50;1941004;74;33063;-68
2021/10/26 19:53:10;;;;;;;45.97;42.53;;;;;;;15.99;100.00;102013.69;1941042;74;33075;-68
2021/10/26 19:58:35;;;;;;;47.43;43.57;;;;;;;15.99;100.00;102001.91;1941084;74;31050;-69
2021/10/26 20:04:02;;;;;;;50.00;46.10;;;;;;;15.99;100.00;102006.12;1941172;74;33028;-69
2021/10/26 20:09:26;;;;;;;49.77;46.33;;;;;;;15.94;100.00;102029.98;1941084;74;33087;-69
2021/10/26 20:14:52;;;;;;;48.23;44.93;;;;;;;15.94;100.00;102029.41;1941324;74;33512;-70
2021/10/26 20:20:18;;;;;;;46.27;42.77;;;;;;;15.88;100.00;102029.17;1972351;72;32932;-69
2021/10/26 20:25:43;;;;;;;46.50;42.83;;;;;;;15.88;100.00;102030.58;1941078;74;33063;-68
2021/10/26 20:31:10;;;;;;;45.87;42.10;;;;;;;15.91;100.00;102044.02;1941274;74;33599;-68
2021/10/26 20:36:42;;;;;;;48.07;44.40;;;;;;;15.86;100.00;102048.82;1941194;74;33703;-69
2021/10/26 20:42:07;;;;;;;46.23;42.73;;;;;;;15.84;100.00;102058.06;1941318;74;33596;-69
2021/10/26 20:47:51;;;;;;;48.23;44.53;;;;;;;15.84;100.00;102056.66;2009786;71;32816;-68
2021/10/26 20:53:15;;;;;;;47.23;43.60;;;;;;;15.83;100.00;102059.22;1941202;74;33113;-69
2021/10/26 20:58:39;;;;;;;48.73;44.63;;;;;;;15.72;100.00;102058.44;1941001;74;33078;-69
2021/10/26 21:04:05;;;;;;;48.20;44.43;;;;;;;15.60;100.00;102064.13;1941211;74;33572;-67
2021/10/26 21:09:30;;;;;;;45.03;41.27;;;;;;;15.52;100.00;102070.33;1941277;74;33236;-68
2021/10/26 21:14:54;;;;;;;45.60;41.83;;;;;;;15.42;100.00;102076.78;1941009;74;33151;-68
2021/10/26 21:20:19;;;;;;;48.17;44.00;;;;;;;15.41;100.00;102083.50;1941032;74;33005;-68
2021/10/26 21:25:42;;;;;;;46.60;42.80;;;;;;;15.40;100.00;102078.46;1941034;74;33085;-69
2021/10/26 21:31:07;;;;;;;46.43;42.63;;;;;;;15.41;100.00;102083.50;1941027;74;33015;-70
2021/10/26 21:36:37;;;;;;;47.97;43.93;;;;;;;15.35;100.00;102079.08;1941022;74;33040;-70
2021/10/26 21:42:00;;;;;;;46.70;42.67;;;;;;;15.36;100.00;102072.36;1941289;74;33636;-68
2021/10/26 21:47:24;;;;;;;47.57;43.67;;;;;;;15.34;100.00;102080.19;1941257;74;33163;-69
2021/10/26 21:52:48;;;;;;;47.10;43.33;;;;;;;15.38;100.00;102072.33;1941049;74;33189;-67
2021/10/26 21:58:13;;;;;;;46.60;42.80;;;;;;;15.42;100.00;102080.43;1941011;74;33082;-68
2021/10/26 22:03:37;;;;;;;48.67;44.67;;;;;;;15.44;100.00;102086.59;1940998;74;33000;-69
2021/10/26 22:09:03;;;;;;;48.67;44.50;;;;;;;15.51;100.00;102080.70;1941044;74;33096;-69
2021/10/26 22:14:28;;;;;;;47.13;43.30;;;;;;;15.52;100.00;102081.53;1941079;74;33069;-69
2021/10/26 22:19:53;;;;;;;45.67;41.87;;;;;;;15.57;100.00;102088.52;1941245;74;33497;-69
2021/10/26 22:25:17;;;;;;;45.00;41.60;;;;;;;15.59;100.00;102087.09;1941228;74;33572;-69
2021/10/26 22:30:41;;;;;;;49.67;46.00;;;;;;;15.55;100.00;102080.95;1941087;74;33234;-71
2021/10/26 22:36:08;;;;;;;44.60;40.70;;;;;;;15.56;100.00;102071.42;1941030;74;32994;-71
2021/10/26 22:41:52;;;;;;;46.07;42.63;;;;;;;15.61;100.00;102066.64;1999205;71;31350;-71
2021/10/26 22:47:17;;;;;;;46.47;42.77;;;;;;;15.65;100.00;102069.70;1941068;74;32993;-71
2021/10/26 22:53:00;;;;;;;45.53;41.93;;;;;;;15.59;100.00;102069.44;2009900;71;32889;-70
2021/10/26 22:58:25;;;;;;;43.73;40.53;;;;;;;15.63;100.00;102062.12;1941111;74;33080;-71
2021/10/26 23:03:49;;;;;;;45.77;42.13;;;;;;;15.68;100.00;102052.30;1941190;74;33094;-69
2021/10/26 23:09:13;;;;;;;44.83;41.70;;;;;;;15.62;100.00;102057.09;1941009;74;33065;-71
2021/10/26 23:14:39;;;;;;;47.73;43.97;;;;;;;15.64;100.00;102054.84;1941027;74;32997;-69
2021/10/26 23:20:13;;;;;;;45.63;42.17;;;;;;;15.65;100.00;102041.69;1941242;74;33566;-72
2021/10/26 23:25:37;;;;;;;43.80;40.40;;;;;;;15.71;100.00;102050.31;1941045;74;32989;-69
2021/10/26 23:31:01;;;;;;;48.13;44.40;;;;;;;15.73;100.00;102045.27;1940990;74;33090;-71
2021/10/26 23:36:26;;;;;;;44.23;41.07;;;;;;;15.69;100.00;102056.22;1941066;74;31057;-68
2021/10/26 23:41:50;;;;;;;43.93;40.53;;;;;;;15.71;100.00;102067.96;1940994;74;33017;-69
2021/10/26 23:47:14;;;;;;;44.97;41.47;;;;;;;15.75;100.00;102059.24;1941219;74;33509;-68
2021/10/26 23:52:39;;;;;;;45.50;42.10;;;;;;;15.73;100.00;102048.07;1941256;74;32999;-68
2021/10/26 23:58:05;;;;;;;43.80;40.40;;;;;;;15.85;100.00;102044.34;1941362;74;33089;-71
